A- A+ FrançaisEnglishEspañol中国

Services sur Internet Soldes sur Internet Des idées de cadeaux Météo Météo aéro

La météo à : Autours de vous Tarbes-Lourdes-PyrénéesOloron-HerrereCalais-DunkerqueSt-Etienne Boutheon

manche à air

La météo aéronautique pour les pilotes, la préparation du vol avec les METAR (METeorological Aerodrome Report, message d'observation des conditions météorologiques pour l'aviation) et Les TAF (Terminal Aerodrome Forecast : message de prévision à court terme des conditions météorologiques pour l'aviation). Et les autres ressources comme les VAC (Visual Approch Chart) et les NOTAM (Notice To Airman) pour préprer les vols.

Aéroport Brandon (Canada) / OACI CYBR/ IATA YBR

L'altitude de l'aéroport Brandon est de 409 m = 1342 ft. Il est situé à proximité de Brandon (Canada). La météo générale à 5 jours est disponible pour Carnegie situé à 12.3 km.

METAR de l'aéroport Brandon - CYBR

CYBR 041600Z 31021KT 15SM FEW048 FEW120 M06/M13 A3008 RMK SC1AC1 SLP216

Décodage du METAR de l'aéroport Brandon (CA)

METAR émis par CYBR le lundi 4 novembre 2019 à 16:00 heure TU. Attention ce METAR est obsolète car il a été émis il y a 5 heure et 15 minutes.

La visibilité est de 24.1 km = 15 sm.

La température est de -6°C = 21 °F et le point rosée est de -13°C = 9 °F . Ce qui correspond à 58% d'humidité relative.

Le QNH est de 1019 hPa = 30.09 inHg

Vent de 21 kt = 39 km/h, orienté à 310°.

Nuages : Quelques nuages à 4800 ft = 1460 mètres. Quelques nuages à 12000 ft = 3660 mètres.

RMK SC1AC1 SLP216

TAF de l'aéroport Brandon - CYBR

CYBR 041139Z 0412/0424 36015G25KT P6SM BKN040 TEMPO 0412/0414 5SM -SHSN BKN020 FM041400 32015G25KT P6SM BKN040 TEMPO 0414/0424 SCT040 RMK NXT FCST BY 041800Z

CYBR 041139Z 0412/0424 36015G25KT P6SM couverture nuageuse fragmentée à 040 temporairement 0412/0414 5SM faible SHSN couverture nuageuse fragmentée à 020 FM041400 32015G25KT P6SM couverture nuageuse fragmentée à 040 temporairement 0414/0424 nuages épars à 040 remarques NXT trombe ST BY 041800Z

Aéroport à proximité de Brandon

Météo générale à 5 jours à Carnegie (12.3 km)Aéroport Portage La Prairie Southport (120 km)Aéroport Dauphin (133 km)Aéroport Rugby Mun (169 km)Aéroport Mohall Mun (171 km)Aéroport Winnipeg (194 km)Aéroport Minot AFB (195 km)

Vue aérienne de l'aéroport Brandon

NOTAM de l'aéroport Brandon

Les NOTAM sont fournis sans aucune garantie de leur actualité. Le pilote est le seul responsable de la vérification de sa validité avant de l'utiliser opérationnellement pour préparer un vol ou l'utiliser lors de sa navigation.

Pas de NOTAM

Sources des données